createdAt,value
2019-02-23T00:00:09.379Z,9.20
2019-02-23T00:02:41.113Z,9.21
2019-02-23T00:05:17.121Z,9.22
2019-02-23T00:07:41.091Z,9.19
2019-02-23T00:10:14.903Z,9.12
2019-02-23T00:12:39.565Z,9.05
2019-02-23T00:15:06.777Z,8.95
2019-02-23T00:17:34.035Z,8.88
2019-02-23T00:20:01.491Z,8.84
2019-02-23T00:22:29.689Z,8.81
2019-02-23T00:25:04.061Z,8.79
2019-02-23T00:27:28.535Z,8.77
2019-02-23T00:29:55.673Z,8.73
2019-02-23T00:32:22.757Z,8.73
2019-02-23T00:34:49.819Z,8.79
2019-02-23T00:37:16.944Z,8.90
2019-02-23T00:39:48.911Z,9.03
2019-02-23T00:42:16.349Z,9.08
2019-02-23T00:44:43.869Z,8.96
2019-02-23T00:47:11.321Z,8.94
2019-02-23T00:49:38.749Z,8.95
2019-02-23T00:52:07.822Z,9.01
2019-02-23T00:54:38.846Z,8.97
2019-02-23T00:57:07.809Z,8.97
2019-02-23T00:59:39.193Z,8.86
2019-02-23T01:02:11.958Z,8.70
2019-02-23T01:04:37.500Z,8.63
2019-02-23T01:07:04.654Z,8.65
2019-02-23T01:09:31.737Z,8.77
2019-02-23T01:11:58.761Z,8.85
2019-02-23T01:14:25.782Z,8.88
2019-02-23T01:17:01.336Z,8.92
2019-02-23T01:19:47.379Z,9.01
2019-02-23T01:22:06.076Z,9.03
2019-02-23T01:24:33.181Z,9.08
2019-02-23T01:27:00.514Z,9.13
2019-02-23T01:29:32.632Z,9.09
2019-02-23T01:32:03.480Z,8.91
2019-02-23T01:34:30.634Z,8.85
2019-02-23T01:36:57.876Z,8.84
2019-02-23T01:39:25.368Z,8.90
2019-02-23T01:41:52.514Z,8.88
2019-02-23T01:44:24.574Z,8.88
2019-02-23T01:46:55.085Z,8.93
2019-02-23T01:49:25.407Z,8.92
2019-02-23T01:52:07.434Z,8.85
2019-02-23T01:54:31.284Z,8.81
2019-02-23T01:57:04.183Z,8.76
2019-02-23T01:59:31.364Z,8.75
2019-02-23T02:01:58.501Z,8.75
2019-02-23T02:04:31.656Z,8.73
2019-02-23T02:06:58.726Z,8.66
2019-02-23T02:09:27.359Z,8.50
2019-02-23T02:11:57.633Z,8.38
2019-02-23T02:14:24.787Z,8.31
2019-02-23T02:16:51.926Z,8.26
2019-02-23T02:19:19.022Z,8.24
2019-02-23T02:21:46.383Z,8.25
2019-02-23T02:24:17.063Z,8.23
2019-02-23T02:26:45.759Z,8.16
2019-02-23T02:29:28.174Z,8.08
2019-02-23T02:31:46.353Z,7.98
2019-02-23T02:34:13.869Z,7.94
2019-02-23T02:36:43.830Z,8.01
2019-02-23T02:39:13.940Z,8.10
2019-02-23T02:41:42.680Z,8.17
2019-02-23T02:44:17.126Z,8.22
2019-02-23T02:46:45.226Z,8.28
2019-02-23T02:49:12.611Z,8.33
2019-02-23T02:51:44.623Z,8.43
2019-02-23T02:54:22.299Z,8.53
2019-02-23T02:56:46.416Z,8.46
2019-02-23T02:59:17.065Z,8.31
2019-02-23T03:01:46.138Z,8.16
2019-02-23T03:04:13.703Z,8.06
2019-02-23T03:06:47.640Z,7.98
2019-02-23T03:09:14.759Z,7.94
2019-02-23T03:11:42.275Z,7.94
2019-02-23T03:14:09.886Z,7.97
2019-02-23T03:16:37.321Z,7.95
2019-02-23T03:19:10.186Z,7.93
2019-02-23T03:21:37.305Z,7.94
2019-02-23T03:24:04.471Z,7.97
2019-02-23T03:26:31.882Z,7.96
2019-02-23T03:28:59.463Z,7.96
2019-02-23T03:31:27.085Z,7.97
2019-02-23T03:33:55.470Z,7.97
2019-02-23T03:36:30.147Z,7.90
2019-02-23T03:38:57.317Z,7.87
2019-02-23T03:41:26.360Z,7.86
2019-02-23T03:43:58.134Z,7.85
2019-02-23T03:46:29.414Z,7.87
2019-02-23T03:48:56.648Z,7.84
2019-02-23T03:51:28.740Z,7.82
2019-02-23T03:53:57.754Z,7.82
2019-02-23T03:56:24.903Z,7.78
2019-02-23T03:58:59.005Z,7.74
2019-02-23T04:01:28.893Z,7.67
2019-02-23T04:04:03.269Z,7.68
2019-02-23T04:06:32.187Z,7.69
2019-02-23T04:09:07.656Z,7.79
2019-02-23T04:11:37.887Z,7.79
2019-02-23T04:14:05.585Z,7.76
2019-02-23T04:16:32.664Z,7.68
2019-02-23T04:18:59.905Z,7.64
2019-02-23T04:21:27.328Z,7.64
2019-02-23T04:23:55.272Z,7.57
2019-02-23T04:26:25.268Z,7.54
2019-02-23T04:28:52.622Z,7.51
2019-02-23T04:31:22.530Z,7.49
2019-02-23T04:33:49.506Z,7.44
2019-02-23T04:36:21.540Z,7.39
2019-02-23T04:38:48.470Z,7.31
2019-02-23T04:41:23.044Z,7.28
2019-02-23T04:43:49.874Z,7.26
2019-02-23T04:46:20.866Z,7.29
2019-02-23T04:48:52.008Z,7.28
2019-02-23T04:51:26.722Z,7.27
2019-02-23T04:54:01.724Z,7.29
2019-02-23T04:56:29.380Z,7.36
2019-02-23T04:58:56.447Z,7.50
2019-02-23T05:01:24.060Z,7.59
2019-02-23T05:03:51.158Z,7.59
2019-02-23T05:06:18.654Z,7.54
2019-02-23T05:08:49.828Z,7.43
2019-02-23T05:11:17.972Z,7.39
2019-02-23T05:13:45.312Z,7.45
2019-02-23T05:16:12.374Z,7.41
2019-02-23T05:18:39.426Z,7.30
2019-02-23T05:21:06.417Z,7.22
2019-02-23T05:23:35.931Z,7.19
2019-02-23T05:26:03.830Z,7.14
2019-02-23T05:28:31.235Z,7.13
2019-02-23T05:31:01.721Z,7.10
2019-02-23T05:33:37.737Z,7.07
2019-02-23T05:36:12.508Z,7.14
2019-02-23T05:38:41.089Z,7.11
2019-02-23T05:41:08.188Z,7.11
2019-02-23T05:43:35.275Z,7.08
2019-02-23T05:46:02.487Z,7.07
2019-02-23T05:48:34.159Z,7.05
2019-02-23T05:51:01.742Z,7.05
2019-02-23T05:53:33.214Z,7.03
2019-02-23T05:56:01.485Z,7.06
2019-02-23T05:58:30.186Z,7.01
2019-02-23T06:00:57.211Z,7.01
2019-02-23T06:03:44.307Z,7.03
2019-02-23T06:06:02.159Z,7.11
2019-02-23T06:08:30.642Z,7.21
2019-02-23T06:11:00.272Z,7.23
2019-02-23T06:13:33.933Z,7.16
2019-02-23T06:16:01.399Z,7.04
2019-02-23T06:18:38.619Z,7.02
2019-02-23T06:21:15.630Z,6.99
2019-02-23T06:23:42.780Z,7.07
2019-02-23T06:26:09.842Z,7.07
2019-02-23T06:28:38.556Z,7.10
2019-02-23T06:31:11.572Z,7.15
2019-02-23T06:33:39.908Z,7.19
2019-02-23T06:36:09.707Z,7.22
2019-02-23T06:38:39.509Z,7.29
2019-02-23T06:41:11.498Z,7.36
2019-02-23T06:43:36.763Z,7.39
2019-02-23T06:46:05.872Z,7.41
2019-02-23T06:48:34.923Z,7.47
2019-02-23T06:51:03.675Z,7.63
2019-02-23T06:53:39.075Z,7.72
2019-02-23T06:56:06.737Z,7.74
2019-02-23T06:58:42.692Z,7.69
2019-02-23T07:01:10.849Z,7.70
2019-02-23T07:06:28.686Z,7.77
2019-02-23T07:08:55.724Z,7.78
2019-02-23T07:11:37.209Z,7.82
2019-02-23T07:13:56.679Z,7.87
2019-02-23T07:16:31.484Z,7.94
2019-02-23T07:19:06.068Z,7.93
2019-02-23T07:21:33.213Z,7.90
2019-02-23T07:24:05.384Z,8.04
2019-02-23T07:26:33.427Z,8.19
2019-02-23T07:29:01.116Z,8.37
2019-02-23T07:31:32.804Z,8.36
2019-02-23T07:34:09.182Z,8.31
2019-02-23T07:36:45.637Z,8.31
2019-02-23T07:39:13.006Z,8.41
2019-02-23T07:41:40.430Z,8.47
2019-02-23T07:44:07.916Z,8.57
2019-02-23T07:46:36.622Z,8.57
2019-02-23T07:49:03.731Z,8.54
2019-02-23T07:51:30.865Z,8.58
2019-02-23T07:54:00.950Z,8.58
2019-02-23T07:56:34.914Z,8.59
2019-02-23T07:59:01.408Z,8.61
2019-02-23T08:01:28.825Z,8.66
2019-02-23T08:03:55.910Z,8.71
2019-02-23T08:06:24.938Z,8.83
2019-02-23T08:08:52.902Z,8.97
2019-02-23T08:11:20.256Z,9.00
2019-02-23T08:13:49.435Z,8.99
2019-02-23T08:16:18.158Z,9.03
2019-02-23T08:18:46.845Z,9.07
2019-02-23T08:21:15.768Z,9.07
2019-02-23T08:23:42.943Z,9.10
2019-02-23T08:26:11.581Z,9.21
2019-02-23T08:28:38.924Z,9.23
2019-02-23T08:31:06.390Z,9.26
2019-02-23T08:33:33.621Z,9.27
2019-02-23T08:36:00.567Z,9.35
2019-02-23T08:38:27.941Z,9.43
2019-02-23T08:40:56.715Z,9.50
2019-02-23T08:43:27.860Z,9.59
2019-02-23T08:45:54.901Z,9.75
2019-02-23T08:48:22.588Z,9.77
2019-02-23T08:50:52.535Z,9.88
2019-02-23T08:53:19.515Z,9.96
2019-02-23T08:55:50.080Z,10.05
2019-02-23T08:58:17.300Z,10.09
2019-02-23T09:00:45.986Z,10.12
2019-02-23T09:03:14.623Z,10.21
2019-02-23T09:05:41.814Z,10.34
2019-02-23T09:08:12.377Z,10.50
2019-02-23T09:10:41.162Z,10.56
2019-02-23T09:13:08.446Z,10.48
2019-02-23T09:18:17.193Z,10.38
2019-02-23T09:20:46.927Z,10.41
2019-02-23T09:23:50.355Z,10.47
2019-02-23T09:25:57.819Z,10.67
2019-02-23T09:28:25.207Z,10.67
2019-02-23T09:30:52.642Z,10.83
2019-02-23T09:33:21.281Z,10.98
2019-02-23T09:35:53.848Z,11.08
2019-02-23T09:38:20.011Z,11.17
2019-02-23T09:40:47.476Z,11.10
2019-02-23T09:43:17.941Z,11.09
2019-02-23T09:45:45.336Z,11.07
2019-02-23T09:48:15.878Z,11.19
2019-02-23T09:50:43.088Z,11.34
2019-02-23T09:53:11.593Z,11.42
2019-02-23T09:55:38.889Z,11.60
2019-02-23T09:58:06.122Z,11.69
2019-02-23T10:00:33.392Z,11.62
2019-02-23T10:03:00.483Z,11.45
2019-02-23T10:05:27.417Z,11.29
2019-02-23T10:08:00.191Z,11.18
2019-02-23T10:10:25.495Z,11.12
2019-02-23T10:12:53.567Z,11.13
2019-02-23T10:15:20.580Z,11.15
2019-02-23T10:17:47.558Z,11.15
2019-02-23T10:20:14.566Z,11.18
2019-02-23T10:22:42.934Z,11.13
2019-02-23T10:25:12.327Z,11.09
2019-02-23T10:27:39.281Z,11.13
2019-02-23T10:30:06.665Z,11.27
2019-02-23T10:32:34.194Z,11.37
2019-02-23T10:35:02.486Z,11.48
2019-02-23T10:37:31.558Z,11.58
2019-02-23T10:39:58.566Z,11.51
2019-02-23T10:42:25.584Z,11.41
2019-02-23T10:44:52.959Z,11.37
2019-02-23T10:47:20.298Z,11.37
2019-02-23T10:49:47.301Z,11.37
2019-02-23T10:52:14.308Z,11.32
2019-02-23T10:54:41.366Z,11.40
2019-02-23T10:57:08.394Z,11.51
2019-02-23T10:59:35.456Z,11.65
2019-02-23T11:02:02.504Z,11.71
2019-02-23T11:04:29.873Z,11.67
2019-02-23T11:06:57.432Z,11.61
2019-02-23T11:09:24.941Z,11.57
2019-02-23T11:11:52.330Z,11.60
2019-02-23T11:14:22.784Z,11.68
2019-02-23T11:16:49.770Z,11.76
2019-02-23T11:19:17.215Z,11.75
2019-02-23T11:22:01.862Z,11.71
2019-02-23T11:24:29.225Z,11.66
2019-02-23T11:27:25.549Z,11.66
2019-02-23T11:29:40.505Z,11.60
2019-02-23T11:32:07.956Z,11.57
2019-02-23T11:34:35.273Z,11.58
2019-02-23T11:37:02.238Z,11.62
2019-02-23T11:39:29.247Z,11.63
2019-02-23T11:41:58.121Z,11.76
2019-02-23T11:44:25.484Z,11.89
2019-02-23T11:47:00.291Z,11.92
2019-02-23T11:49:21.026Z,11.99
2019-02-23T11:51:48.004Z,12.00
2019-02-23T11:54:15.254Z,12.01
2019-02-23T11:56:42.167Z,12.01
2019-02-23T11:59:10.535Z,12.04
2019-02-23T12:01:37.503Z,12.08
2019-02-23T12:04:06.137Z,12.09
2019-02-23T12:06:33.194Z,12.10
2019-02-23T12:09:00.492Z,12.24
2019-02-23T12:11:29.151Z,12.34
2019-02-23T12:13:56.265Z,12.36
2019-02-23T12:16:23.282Z,12.39
2019-02-23T12:18:50.640Z,12.44
2019-02-23T12:21:17.879Z,12.45
2019-02-23T12:23:44.995Z,12.47
2019-02-23T12:26:11.957Z,12.55
2019-02-23T12:28:39.079Z,12.56
2019-02-23T12:31:06.416Z,12.56
2019-02-23T12:33:33.721Z,12.54
2019-02-23T12:36:01.077Z,12.59
2019-02-23T12:38:28.445Z,12.63
2019-02-23T12:40:55.457Z,12.67
2019-02-23T12:43:23.521Z,12.66
2019-02-23T12:45:50.456Z,12.68
2019-02-23T12:48:17.985Z,12.78
2019-02-23T12:50:45.318Z,12.84
2019-02-23T12:53:12.691Z,12.86
2019-02-23T12:55:39.858Z,12.85
2019-02-23T12:58:06.792Z,12.95
2019-02-23T13:00:34.237Z,13.05
2019-02-23T13:03:01.731Z,13.02
2019-02-23T13:05:28.723Z,12.95
2019-02-23T13:07:55.665Z,12.97
2019-02-23T13:10:22.647Z,12.98
2019-02-23T13:12:49.966Z,12.97
2019-02-23T13:15:16.989Z,12.97
2019-02-23T13:17:44.398Z,12.96
2019-02-23T13:20:11.382Z,12.84
2019-02-23T13:22:39.502Z,12.70
2019-02-23T13:25:06.990Z,12.61
2019-02-23T13:27:33.971Z,12.60
2019-02-23T13:30:00.916Z,12.58
2019-02-23T13:32:28.535Z,12.57
2019-02-23T13:34:55.456Z,12.68
2019-02-23T13:37:22.790Z,12.68
2019-02-23T13:39:49.735Z,12.72
2019-02-23T13:42:16.988Z,12.82
2019-02-23T13:44:44.016Z,12.85
2019-02-23T13:47:11.189Z,12.84
2019-02-23T13:49:38.152Z,12.75
2019-02-23T13:52:06.438Z,12.69
2019-02-23T13:54:39.002Z,12.62
2019-02-23T13:57:05.713Z,12.62
2019-02-23T13:59:32.664Z,12.64
2019-02-23T14:02:01.049Z,12.63
2019-02-23T14:04:28.137Z,12.65
2019-02-23T14:06:55.150Z,12.65
2019-02-23T14:09:22.348Z,12.68
2019-02-23T14:11:51.386Z,12.71
2019-02-23T14:14:17.939Z,12.73
2019-02-23T14:16:45.208Z,12.71
2019-02-23T14:19:12.214Z,12.65
2019-02-23T14:21:39.619Z,12.62
2019-02-23T14:24:06.590Z,12.59
2019-02-23T14:26:33.586Z,12.55
2019-02-23T14:29:00.613Z,12.49
2019-02-23T14:31:27.642Z,12.51
2019-02-23T14:33:54.939Z,12.57
2019-02-23T14:36:23.430Z,12.64
2019-02-23T14:38:50.702Z,12.65
2019-02-23T14:41:17.710Z,12.62
2019-02-23T14:43:44.658Z,12.62
2019-02-23T14:46:11.780Z,12.59
2019-02-23T14:48:43.327Z,12.53
2019-02-23T14:51:10.370Z,12.54
2019-02-23T14:53:37.683Z,12.56
2019-02-23T14:56:05.014Z,12.56
2019-02-23T14:58:31.975Z,12.54
2019-02-23T15:00:59.346Z,12.53
2019-02-23T15:03:26.322Z,12.59
2019-02-23T15:05:53.625Z,12.59
2019-02-23T15:08:20.991Z,12.61
2019-02-23T15:10:48.394Z,12.64
2019-02-23T15:13:15.495Z,12.66
2019-02-23T15:15:42.858Z,12.65
2019-02-23T15:18:10.207Z,12.66
2019-02-23T15:20:37.465Z,12.63
2019-02-23T15:23:04.808Z,12.60
2019-02-23T15:25:32.057Z,12.58
2019-02-23T15:27:59.426Z,12.58
2019-02-23T15:30:29.620Z,12.61
2019-02-23T15:32:55.784Z,12.62
2019-02-23T15:35:22.748Z,12.55
2019-02-23T15:37:56.317Z,12.52
2019-02-23T15:40:23.711Z,12.52
2019-02-23T15:42:50.809Z,12.49
2019-02-23T15:45:17.786Z,12.44
2019-02-23T15:47:44.838Z,12.45
2019-02-23T15:50:13.622Z,12.47
2019-02-23T15:52:40.626Z,12.51
2019-02-23T15:55:07.652Z,12.55
2019-02-23T15:57:34.858Z,12.55
2019-02-23T16:00:01.940Z,12.57
2019-02-23T16:02:29.659Z,12.55
2019-02-23T16:04:56.573Z,12.59
2019-02-23T16:07:23.846Z,12.62
2019-02-23T16:09:50.861Z,12.62
2019-02-23T16:12:17.769Z,12.61
2019-02-23T16:14:44.749Z,12.59
2019-02-23T16:17:12.039Z,12.59
2019-02-23T16:19:39.008Z,12.61
2019-02-23T16:22:06.078Z,12.65
2019-02-23T16:24:33.017Z,12.67
2019-02-23T16:27:00.005Z,12.69
2019-02-23T16:29:26.979Z,12.71
2019-02-23T16:31:53.935Z,12.71
2019-02-23T16:34:20.921Z,12.69
2019-02-23T16:36:48.258Z,12.72
2019-02-23T16:39:15.253Z,12.67
2019-02-23T16:41:42.676Z,12.63
2019-02-23T16:44:09.649Z,12.60
2019-02-23T16:46:40.388Z,12.54
2019-02-23T16:49:07.342Z,12.49
2019-02-23T16:51:34.610Z,12.51
2019-02-23T16:54:01.602Z,12.48
2019-02-23T16:56:28.579Z,12.46
2019-02-23T16:58:55.439Z,12.44
2019-02-23T17:01:22.910Z,12.39
2019-02-23T17:03:49.913Z,12.32
2019-02-23T17:06:16.850Z,12.30
2019-02-23T17:08:44.057Z,12.24
2019-02-23T17:11:11.044Z,12.18
2019-02-23T17:13:38.119Z,12.17
2019-02-23T17:16:05.086Z,12.20
2019-02-23T17:18:32.084Z,12.20
2019-02-23T17:20:59.433Z,12.23
2019-02-23T17:23:26.364Z,12.28
2019-02-23T17:26:03.710Z,12.32
2019-02-23T17:28:23.742Z,12.33
2019-02-23T17:30:50.705Z,12.30
2019-02-23T17:33:17.767Z,12.29
2019-02-23T17:35:44.723Z,12.26
2019-02-23T17:38:16.155Z,12.26
2019-02-23T17:40:40.762Z,12.23
2019-02-23T17:43:07.736Z,12.19
2019-02-23T17:45:35.094Z,12.14
2019-02-23T17:48:02.112Z,12.09
2019-02-23T17:50:29.393Z,12.08
2019-02-23T17:52:56.646Z,12.06
2019-02-23T17:55:23.630Z,12.06
2019-02-23T17:57:50.621Z,12.05
2019-02-23T18:00:17.586Z,12.08
2019-02-23T18:02:44.880Z,12.04
2019-02-23T18:05:11.799Z,11.97
2019-02-23T18:07:38.723Z,11.87
2019-02-23T18:10:05.734Z,11.80
2019-02-23T18:12:33.103Z,11.74
2019-02-23T18:15:00.516Z,11.68
2019-02-23T18:17:27.525Z,11.65
2019-02-23T18:19:54.567Z,11.63
2019-02-23T18:22:21.597Z,11.60
2019-02-23T18:24:49.324Z,11.56
2019-02-23T18:27:16.467Z,11.56
2019-02-23T18:29:43.508Z,11.60
2019-02-23T18:32:10.556Z,11.62
2019-02-23T18:34:37.599Z,11.65
2019-02-23T18:37:04.961Z,11.65
2019-02-23T18:39:32.034Z,11.64
2019-02-23T18:41:59.255Z,11.64
2019-02-23T18:44:26.514Z,11.62
2019-02-23T18:46:53.452Z,11.59
2019-02-23T18:49:20.488Z,11.54
2019-02-23T18:51:47.831Z,11.52
2019-02-23T18:54:14.826Z,11.48
2019-02-23T18:56:43.309Z,11.48
2019-02-23T18:59:10.343Z,11.48
2019-02-23T19:01:37.726Z,11.45
2019-02-23T19:04:05.812Z,11.42
2019-02-23T19:06:33.381Z,11.36
2019-02-23T19:09:00.619Z,11.31
2019-02-23T19:11:29.364Z,11.29
2019-02-23T19:13:56.440Z,11.28
2019-02-23T19:16:23.465Z,11.31
2019-02-23T19:18:50.378Z,11.34
2019-02-23T19:21:17.651Z,11.37
2019-02-23T19:23:45.283Z,11.38
2019-02-23T19:26:12.486Z,11.37
2019-02-23T19:28:43.177Z,11.40
2019-02-23T19:31:08.328Z,11.34
2019-02-23T19:33:35.346Z,11.28
2019-02-23T19:36:02.352Z,11.23
2019-02-23T19:38:29.691Z,11.20
2019-02-23T19:40:56.867Z,11.18
2019-02-23T19:43:24.231Z,11.14
2019-02-23T19:45:51.381Z,11.11
2019-02-23T19:48:18.718Z,11.08
2019-02-23T19:50:45.923Z,11.05
2019-02-23T19:53:12.867Z,11.07
2019-02-23T19:55:40.265Z,11.04
2019-02-23T19:58:09.859Z,10.93
2019-02-23T20:00:36.894Z,10.90
2019-02-23T20:03:04.107Z,10.84
2019-02-23T20:05:31.348Z,10.85
2019-02-23T20:08:00.537Z,10.88
2019-02-23T20:10:29.061Z,10.81
2019-02-23T20:12:56.319Z,10.71
2019-02-23T20:15:24.504Z,10.57
2019-02-23T20:17:51.439Z,10.50
2019-02-23T20:20:18.430Z,10.47
2019-02-23T20:22:45.464Z,10.51
2019-02-23T20:25:12.529Z,10.51
2019-02-23T20:27:39.648Z,10.53
2019-02-23T20:30:06.599Z,10.56
2019-02-23T20:32:34.857Z,10.54
2019-02-23T20:35:02.227Z,10.53
2019-02-23T20:37:30.455Z,10.56
2019-02-23T20:39:57.417Z,10.58
2019-02-23T20:42:24.816Z,10.58
2019-02-23T20:44:52.167Z,10.59
2019-02-23T20:47:19.230Z,10.56
2019-02-23T20:49:47.536Z,10.47
2019-02-23T20:52:16.019Z,10.35
2019-02-23T20:54:43.894Z,10.35
2019-02-23T20:57:14.103Z,10.39
2019-02-23T20:59:41.492Z,10.40
2019-02-23T21:02:08.447Z,10.33
2019-02-23T21:04:35.726Z,10.32
2019-02-23T21:07:02.700Z,10.34
2019-02-23T21:09:30.138Z,10.29
2019-02-23T21:11:57.655Z,10.24
2019-02-23T21:14:25.861Z,10.22
2019-02-23T21:16:54.355Z,10.23
2019-02-23T21:19:23.695Z,10.20
2019-02-23T21:21:50.765Z,7.77
2019-02-23T21:24:17.851Z,10.06
2019-02-23T21:26:45.201Z,10.11
2019-02-23T21:29:12.137Z,10.14
2019-02-23T21:31:39.580Z,10.13
2019-02-23T21:34:12.258Z,10.18
2019-02-23T21:36:46.597Z,10.14
2019-02-23T21:39:14.741Z,10.07
2019-02-23T21:41:42.210Z,10.01
2019-02-23T21:44:09.721Z,9.97
2019-02-23T21:46:37.063Z,9.95
2019-02-23T21:49:05.313Z,9.88
2019-02-23T21:51:33.027Z,9.85
2019-02-23T21:54:00.378Z,9.81
2019-02-23T21:56:29.009Z,9.81
2019-02-23T21:58:56.247Z,9.78
2019-02-23T22:01:23.354Z,9.74
2019-02-23T22:03:50.509Z,9.68
2019-02-23T22:06:19.088Z,9.66
2019-02-23T22:08:46.159Z,9.64
2019-02-23T22:11:13.221Z,9.63
2019-02-23T22:13:40.387Z,9.63
2019-02-23T22:16:15.224Z,9.63
2019-02-23T22:18:37.572Z,9.62
2019-02-23T22:21:04.529Z,9.47
2019-02-23T22:23:32.093Z,9.39
2019-02-23T22:25:59.053Z,9.36
2019-02-23T22:28:26.281Z,9.33
2019-02-23T22:30:53.388Z,9.31
2019-02-23T22:33:20.457Z,9.29
2019-02-23T22:35:49.033Z,9.33
2019-02-23T22:38:16.052Z,9.37
2019-02-23T22:40:45.302Z,9.39
2019-02-23T22:43:13.053Z,9.40
2019-02-23T22:45:40.006Z,9.39
2019-02-23T22:48:07.165Z,9.41
2019-02-23T22:50:35.790Z,9.42
2019-02-23T22:53:02.898Z,9.46
2019-02-23T22:55:30.272Z,9.43
2019-02-23T22:57:57.504Z,9.38
2019-02-23T23:00:24.479Z,9.33
2019-02-23T23:02:53.065Z,9.27
2019-02-23T23:05:20.068Z,9.22
2019-02-23T23:07:47.090Z,9.31
2019-02-23T23:10:14.108Z,9.44
2019-02-23T23:12:41.234Z,9.45
2019-02-23T23:15:08.386Z,9.42
2019-02-23T23:17:35.741Z,9.38
2019-02-23T23:20:02.787Z,9.34
2019-02-23T23:22:31.551Z,9.34
2019-02-23T23:24:58.589Z,9.34
2019-02-23T23:27:27.155Z,9.33
2019-02-23T23:29:54.185Z,9.32
2019-02-23T23:32:21.176Z,9.39
2019-02-23T23:34:48.112Z,9.46
2019-02-23T23:37:15.129Z,9.46
2019-02-23T23:39:42.123Z,9.45
2019-02-23T23:42:09.111Z,9.41
2019-02-23T23:44:36.554Z,9.39
2019-02-23T23:47:03.592Z,9.38
2019-02-23T23:49:30.864Z,9.39
2019-02-23T23:51:57.936Z,9.35
2019-02-23T23:54:24.918Z,9.28
2019-02-23T23:56:51.894Z,9.30
2019-02-23T23:59:19.226Z,9.28
